Time;durP1;ratioP1;P1;durP2;ratioP2;P2;SDS_P1;SDS_P2;PMS_P1;PMS_P2;Temp;Humidity;BMP_temperature;BMP_pressure;BME280_temperature;BME280_humidity;BME280_pressure;Samples;Min_cycle;Max_cycle;Signal;HPM_P1;HPM_P2
2024/02/03 00:00:39;;;;;;;28.20;13.95;;;9.80;99.90;;;;;;5005669;28;20459;-77
2024/02/03 00:03:04;;;;;;;25.75;13.20;;;9.80;99.90;;;;;;5011884;28;20069;-78
2024/02/03 00:05:30;;;;;;;28.95;14.50;;;9.70;99.90;;;;;;5011339;28;20033;-78
2024/02/03 00:07:56;;;;;;;30.08;13.23;;;9.80;99.90;;;;;;5005864;28;20041;-79
2024/02/03 00:10:21;;;;;;;24.98;13.05;;;9.80;99.90;;;;;;5013093;28;20026;-78
2024/02/03 00:12:47;;;;;;;23.05;11.98;;;9.80;99.90;;;;;;5011919;28;20121;-78
2024/02/03 00:15:12;;;;;;;24.02;12.38;;;9.80;99.90;;;;;;5010901;28;20124;-78
2024/02/03 00:17:39;;;;;;;21.98;12.18;;;9.80;99.90;;;;;;5010096;28;20552;-78
2024/02/03 00:20:06;;;;;;;23.85;11.93;;;9.80;99.90;;;;;;5011547;28;20129;-78
2024/02/03 00:22:31;;;;;;;22.73;11.52;;;9.80;99.90;;;;;;5011622;28;20033;-78
2024/02/03 00:24:57;;;;;;;23.25;11.18;;;9.80;99.90;;;;;;5005270;28;20040;-77
2024/02/03 00:27:23;;;;;;;25.08;10.65;;;9.80;99.90;;;;;;5007229;28;20035;-78
2024/02/03 00:29:48;;;;;;;21.17;10.50;;;9.80;99.90;;;;;;5004434;28;20048;-79
2024/02/03 00:32:14;;;;;;;25.10;10.43;;;9.80;99.90;;;;;;5010371;28;20052;-78
2024/02/03 00:34:41;;;;;;;23.55;10.48;;;9.90;99.90;;;;;;5008009;28;20518;-77
2024/02/03 00:37:07;;;;;;;21.25;9.45;;;9.90;99.90;;;;;;5010119;28;20084;-78
2024/02/03 00:39:32;;;;;;;18.65;8.90;;;9.80;99.90;;;;;;5007761;28;20057;-78
2024/02/03 00:41:58;;;;;;;19.35;9.05;;;9.90;99.90;;;;;;5011640;28;20487;-78
2024/02/03 00:44:23;;;;;;;21.30;9.68;;;9.90;99.90;;;;;;5009417;28;20535;-78
2024/02/03 00:46:49;;;;;;;20.40;8.98;;;9.90;99.90;;;;;;5003179;28;20053;-79
2024/02/03 00:49:15;;;;;;;19.73;8.20;;;9.90;99.90;;;;;;5011003;28;20125;-78
2024/02/03 00:51:41;;;;;;;17.05;7.93;;;9.90;99.90;;;;;;5003100;28;20113;-78
2024/02/03 00:54:06;;;;;;;19.02;8.80;;;9.90;99.90;;;;;;5004396;28;20046;-78
2024/02/03 00:56:34;;;;;;;17.80;7.78;;;9.90;99.90;;;;;;5011019;28;20037;-78
2024/02/03 00:59:00;;;;;;;21.77;7.80;;;9.90;99.90;;;;;;4999958;28;20060;-79
2024/02/03 01:01:26;;;;;;;17.13;7.82;;;9.90;99.90;;;;;;5006179;28;20464;-78
2024/02/03 01:03:51;;;;;;;17.55;7.57;;;9.90;99.90;;;;;;5000961;28;20072;-79
2024/02/03 01:06:17;;;;;;;14.52;7.07;;;9.80;99.90;;;;;;5010230;28;20479;-77
2024/02/03 01:08:44;;;;;;;15.25;7.05;;;9.80;99.90;;;;;;5006941;28;20049;-78
2024/02/03 01:11:10;;;;;;;14.25;7.82;;;9.80;99.90;;;;;;5009737;28;20462;-79
2024/02/03 01:13:35;;;;;;;14.65;7.70;;;9.80;99.90;;;;;;5011257;28;20062;-78
2024/02/03 01:16:01;;;;;;;21.95;8.20;;;9.70;99.90;;;;;;5008094;28;20041;-78
2024/02/03 01:18:27;;;;;;;18.35;7.93;;;9.80;99.90;;;;;;5009198;28;20046;-78
2024/02/03 01:20:52;;;;;;;20.85;8.82;;;9.70;99.90;;;;;;5009962;28;20045;-78
2024/02/03 01:23:18;;;;;;;18.60;9.23;;;9.70;99.90;;;;;;5007109;28;20061;-78
2024/02/03 01:25:44;;;;;;;19.02;8.68;;;9.70;99.90;;;;;;5007477;28;20088;-77
2024/02/03 01:28:10;;;;;;;19.08;8.80;;;9.70;99.90;;;;;;4997056;28;20044;-79
2024/02/03 01:30:35;;;;;;;22.30;8.73;;;9.60;99.90;;;;;;5010947;28;20030;-77
2024/02/03 01:33:01;;;;;;;19.13;8.43;;;9.70;99.90;;;;;;5003324;28;20137;-78
2024/02/03 01:35:27;;;;;;;17.52;8.02;;;9.70;99.90;;;;;;5009511;28;20077;-78
2024/02/03 01:37:53;;;;;;;20.83;9.05;;;9.70;99.90;;;;;;5009728;28;20076;-77
2024/02/03 01:40:19;;;;;;;20.60;9.13;;;9.70;99.90;;;;;;5010505;28;20112;-78
2024/02/03 01:42:45;;;;;;;17.02;8.35;;;9.80;99.90;;;;;;5010015;28;20034;-79
2024/02/03 01:45:12;;;;;;;17.48;8.10;;;9.70;99.90;;;;;;5009071;28;20038;-78
2024/02/03 01:47:39;;;;;;;17.65;7.97;;;9.70;99.90;;;;;;5010586;28;20406;-78
2024/02/03 01:50:06;;;;;;;14.23;7.45;;;9.80;99.90;;;;;;5010450;28;20088;-80
2024/02/03 01:52:33;;;;;;;17.90;6.95;;;9.70;99.90;;;;;;5005410;28;20376;-78
2024/02/03 01:54:58;;;;;;;15.40;6.90;;;9.80;99.90;;;;;;5010782;28;20038;-78
2024/02/03 01:57:25;;;;;;;16.55;6.45;;;9.80;99.90;;;;;;5007552;28;20152;-80
2024/02/03 01:59:52;;;;;;;14.18;6.38;;;9.80;99.90;;;;;;5006415;28;20069;-78
2024/02/03 02:02:18;;;;;;;15.32;6.30;;;9.80;99.90;;;;;;5007042;28;20427;-78
2024/02/03 02:04:43;;;;;;;14.38;6.57;;;9.80;99.90;;;;;;5002033;28;20124;-78
2024/02/03 02:07:09;;;;;;;15.38;6.35;;;9.90;99.90;;;;;;5014411;28;20073;-80
2024/02/03 02:09:35;;;;;;;16.08;6.88;;;9.90;99.90;;;;;;5012826;28;20077;-78
2024/02/03 02:12:00;;;;;;;12.07;5.85;;;9.90;99.90;;;;;;5012373;28;20038;-78
2024/02/03 02:14:26;;;;;;;17.73;6.25;;;9.90;99.90;;;;;;5008004;28;20046;-78
2024/02/03 02:16:52;;;;;;;13.68;5.72;;;9.90;99.90;;;;;;5007823;28;20049;-78
2024/02/03 02:19:19;;;;;;;11.82;5.75;;;9.90;99.90;;;;;;5008833;28;20128;-78
2024/02/03 02:21:45;;;;;;;15.05;6.70;;;9.90;99.90;;;;;;5007457;28;20042;-79
2024/02/03 02:24:13;;;;;;;12.10;5.78;;;9.90;99.90;;;;;;5012369;28;20050;-78
2024/02/03 02:26:39;;;;;;;15.70;6.18;;;9.90;99.90;;;;;;5007330;28;20042;-78
2024/02/03 02:29:04;;;;;;;10.18;4.85;;;9.90;99.90;;;;;;5012751;28;20388;-78
2024/02/03 02:31:30;;;;;;;14.15;5.88;;;9.90;99.90;;;;;;5007770;28;20423;-79
2024/02/03 02:33:56;;;;;;;14.60;5.78;;;9.90;99.90;;;;;;5004838;28;20502;-78
2024/02/03 02:36:22;;;;;;;15.55;5.35;;;9.90;99.90;;;;;;5012516;28;20037;-78
2024/02/03 02:38:47;;;;;;;11.43;5.63;;;9.90;99.90;;;;;;5013505;28;20088;-78
2024/02/03 02:41:13;;;;;;;11.18;4.90;;;9.90;99.90;;;;;;5012355;28;20040;-78
2024/02/03 02:43:38;;;;;;;9.82;4.85;;;10.00;99.90;;;;;;5013469;28;20061;-78
2024/02/03 02:46:05;;;;;;;11.35;4.32;;;10.00;99.90;;;;;;5007904;28;20237;-78
2024/02/03 02:48:31;;;;;;;10.40;4.78;;;10.00;99.90;;;;;;5013359;28;20040;-78
2024/02/03 02:50:56;;;;;;;10.73;4.57;;;10.00;99.90;;;;;;5010090;28;20038;-79
2024/02/03 02:53:22;;;;;;;12.38;4.50;;;10.00;99.90;;;;;;5013508;28;20483;-78
2024/02/03 02:55:47;;;;;;;9.30;4.22;;;10.00;99.90;;;;;;5008705;28;20041;-77
2024/02/03 02:58:13;;;;;;;9.60;4.80;;;10.10;99.90;;;;;;4999481;28;20042;-78
2024/02/03 03:00:38;;;;;;;9.13;4.28;;;10.10;99.90;;;;;;5007632;28;20212;-79
2024/02/03 03:03:04;;;;;;;10.23;4.50;;;10.10;99.90;;;;;;5015352;28;20038;-77
2024/02/03 03:05:30;;;;;;;10.02;4.30;;;10.10;99.90;;;;;;5004028;28;20042;-78
2024/02/03 03:07:55;;;;;;;14.32;4.40;;;10.10;99.90;;;;;;5002439;28;20037;-77
2024/02/03 03:10:21;;;;;;;8.77;3.60;;;10.10;99.90;;;;;;5008647;28;20034;-78
2024/02/03 03:12:47;;;;;;;10.10;3.70;;;10.10;99.90;;;;;;5005658;28;20099;-77
2024/02/03 03:15:12;;;;;;;15.48;4.18;;;10.10;99.90;;;;;;5004862;28;20042;-79
2024/02/03 03:17:38;;;;;;;7.63;3.88;;;10.10;99.90;;;;;;5006298;28;20406;-77
2024/02/03 03:20:04;;;;;;;9.93;3.95;;;10.10;99.90;;;;;;5007361;28;20038;-77
2024/02/03 03:22:30;;;;;;;9.90;3.85;;;10.10;99.90;;;;;;5001458;28;20096;-78
2024/02/03 03:24:55;;;;;;;8.65;3.92;;;10.00;99.90;;;;;;5007088;28;20427;-78
2024/02/03 03:27:21;;;;;;;10.75;4.00;;;10.00;99.90;;;;;;5005096;28;20108;-78
2024/02/03 03:29:47;;;;;;;13.63;4.20;;;10.00;99.90;;;;;;5012574;28;20042;-77
2024/02/03 03:32:13;;;;;;;10.88;3.67;;;10.00;99.90;;;;;;5011094;28;20057;-78
2024/02/03 03:34:40;;;;;;;12.32;4.18;;;10.10;99.90;;;;;;5007097;28;20034;-77
2024/02/03 03:37:05;;;;;;;10.73;3.50;;;10.00;99.90;;;;;;5004565;28;20468;-79
2024/02/03 03:39:31;;;;;;;8.23;3.85;;;10.10;99.90;;;;;;5012540;28;20061;-78
2024/02/03 03:41:57;;;;;;;12.63;4.00;;;10.10;99.90;;;;;;5007258;28;20109;-79
2024/02/03 03:44:22;;;;;;;12.43;4.07;;;10.10;99.90;;;;;;5013040;28;20483;-79
2024/02/03 03:46:48;;;;;;;13.40;3.83;;;10.10;99.90;;;;;;5006485;28;20498;-78
2024/02/03 03:49:13;;;;;;;11.13;3.50;;;10.10;99.90;;;;;;5012637;28;20446;-79
2024/02/03 03:51:39;;;;;;;11.20;4.47;;;10.10;99.90;;;;;;5011990;28;20038;-79
2024/02/03 03:54:05;;;;;;;11.13;3.72;;;10.10;99.90;;;;;;5009290;28;20077;-79
2024/02/03 03:56:30;;;;;;;12.82;3.85;;;10.10;99.90;;;;;;5004911;28;20411;-78
2024/02/03 03:58:56;;;;;;;11.82;4.00;;;10.10;99.90;;;;;;5010478;28;20038;-79
2024/02/03 04:01:21;;;;;;;9.90;4.20;;;10.10;99.90;;;;;;5012432;28;20034;-79
2024/02/03 04:03:47;;;;;;;12.35;3.88;;;10.10;99.90;;;;;;5009530;28;20044;-78
2024/02/03 04:06:12;;;;;;;12.13;3.83;;;10.10;99.90;;;;;;5008417;28;20041;-78
2024/02/03 04:08:38;;;;;;;13.98;3.67;;;10.10;99.90;;;;;;5012174;28;20164;-79
2024/02/03 04:11:04;;;;;;;11.32;3.90;;;10.10;99.90;;;;;;5012013;28;20033;-79
2024/02/03 04:13:31;;;;;;;11.25;4.13;;;10.10;99.90;;;;;;5008823;28;20040;-79
2024/02/03 04:15:56;;;;;;;10.40;3.55;;;10.10;99.90;;;;;;5007120;28;20069;-79
2024/02/03 04:18:22;;;;;;;11.02;4.03;;;10.00;99.90;;;;;;5010104;28;20069;-79
2024/02/03 04:20:47;;;;;;;9.70;3.88;;;10.10;99.90;;;;;;5008551;28;20491;-79
2024/02/03 04:23:13;;;;;;;11.65;4.30;;;10.00;99.90;;;;;;5004727;28;20038;-78
2024/02/03 04:25:38;;;;;;;10.70;4.35;;;10.00;99.90;;;;;;4998142;28;20030;-79
2024/02/03 04:28:04;;;;;;;13.02;3.70;;;9.60;99.90;;;;;;5011188;28;20042;-79
2024/02/03 04:30:30;;;;;;;11.23;3.55;;;10.00;99.90;;;;;;5004288;28;20044;-79
2024/02/03 04:32:55;;;;;;;12.20;4.25;;;10.00;99.90;;;;;;5009280;28;20116;-78
2024/02/03 04:35:21;;;;;;;12.57;4.07;;;10.10;99.90;;;;;;5006346;28;20062;-79
2024/02/03 04:37:47;;;;;;;16.38;4.50;;;10.10;99.90;;;;;;5011154;28;20037;-79
2024/02/03 04:40:12;;;;;;;12.90;3.80;;;10.10;99.90;;;;;;5012073;28;20041;-79
2024/02/03 04:42:38;;;;;;;14.40;4.28;;;10.10;99.90;;;;;;5008823;28;20042;-78
2024/02/03 04:45:04;;;;;;;15.63;4.18;;;10.10;99.90;;;;;;5009967;28;20049;-79
2024/02/03 04:47:31;;;;;;;12.13;4.05;;;10.10;99.90;;;;;;5011136;28;20033;-79
2024/02/03 04:49:56;;;;;;;11.32;3.85;;;10.00;99.90;;;;;;5010670;28;20095;-79
2024/02/03 04:52:22;;;;;;;17.77;4.65;;;10.00;99.90;;;;;;5005157;28;20488;-79
2024/02/03 04:54:48;;;;;;;14.05;4.50;;;10.00;99.90;;;;;;5010696;28;20038;-79
2024/02/03 04:57:14;;;;;;;16.42;3.78;;;10.00;99.90;;;;;;5008044;28;20049;-79
2024/02/03 04:59:40;;;;;;;16.17;4.60;;;10.00;99.90;;;;;;5006310;28;20041;-78
2024/02/03 05:02:06;;;;;;;13.80;4.20;;;10.00;99.90;;;;;;5013059;28;20034;-79
2024/02/03 05:04:31;;;;;;;10.30;3.90;;;10.00;99.90;;;;;;5017237;28;20131;-79
2024/02/03 05:06:57;;;;;;;15.88;4.20;;;10.00;99.90;;;;;;5005498;28;20040;-77
2024/02/03 05:09:22;;;;;;;11.88;3.83;;;10.00;99.90;;;;;;5010411;28;20038;-79
2024/02/03 05:11:48;;;;;;;19.63;4.32;;;10.00;99.90;;;;;;5012049;28;20487;-79
2024/02/03 05:14:14;;;;;;;10.25;3.70;;;10.00;99.90;;;;;;5016283;28;20402;-79
2024/02/03 05:16:39;;;;;;;12.35;3.78;;;10.00;99.90;;;;;;5014541;28;20037;-80
2024/02/03 05:19:09;;;;;;;13.77;4.43;;;10.00;99.90;;;;;;5013586;28;20483;-78
2024/02/03 05:21:35;;;;;;;10.52;4.20;;;10.00;99.90;;;;;;5006606;28;20038;-77
2024/02/03 05:24:01;;;;;;;12.27;3.95;;;10.00;99.90;;;;;;5007336;28;20030;-78
2024/02/03 05:26:26;;;;;;;13.90;4.35;;;10.00;99.90;;;;;;5010780;28;20056;-79
2024/02/03 05:28:52;;;;;;;17.85;4.20;;;10.00;99.90;;;;;;5014925;28;20049;-79
2024/02/03 05:31:21;;;;;;;15.63;4.63;;;10.00;99.90;;;;;;5011069;28;20026;-79
2024/02/03 05:33:47;;;;;;;12.43;4.85;;;10.00;99.90;;;;;;5010957;28;20111;-79
2024/02/03 05:36:12;;;;;;;16.75;4.82;;;10.00;99.90;;;;;;5009858;28;20511;-78
2024/02/03 05:38:38;;;;;;;14.25;4.47;;;9.90;99.90;;;;;;5011539;28;20045;-79
2024/02/03 05:41:05;;;;;;;18.00;5.03;;;10.00;99.90;;;;;;5013683;28;20403;-79
2024/02/03 05:43:31;;;;;;;15.85;4.55;;;10.00;99.90;;;;;;5015315;28;20125;-78
2024/02/03 05:45:57;;;;;;;18.52;5.90;;;10.00;99.90;;;;;;5008114;28;20173;-80
2024/02/03 05:48:22;;;;;;;14.30;4.78;;;10.00;99.90;;;;;;5011945;28;20384;-79
2024/02/03 05:50:48;;;;;;;12.23;3.95;;;10.00;99.90;;;;;;5011505;28;20034;-79
2024/02/03 05:53:13;;;;;;;19.10;4.82;;;10.00;99.90;;;;;;5009115;28;20034;-79
2024/02/03 05:55:39;;;;;;;21.40;5.18;;;10.00;99.90;;;;;;5010024;28;20030;-78
2024/02/03 05:58:05;;;;;;;15.40;5.30;;;10.00;99.90;;;;;;5011632;28;20077;-78
2024/02/03 06:00:30;;;;;;;15.00;4.68;;;9.90;99.90;;;;;;5012289;28;20121;-78
2024/02/03 06:02:57;;;;;;;19.08;5.70;;;10.00;99.90;;;;;;5013455;28;20042;-78
2024/02/03 06:05:23;;;;;;;15.20;4.95;;;9.90;99.90;;;;;;5005101;28;20030;-79
2024/02/03 06:07:49;;;;;;;16.90;4.85;;;9.90;99.90;;;;;;5008983;28;20039;-79
2024/02/03 06:10:14;;;;;;;17.08;5.32;;;9.90;99.90;;;;;;5010016;28;20108;-78
2024/02/03 06:12:40;;;;;;;19.02;5.88;;;9.90;99.90;;;;;;5007131;28;20096;-79
2024/02/03 06:15:06;;;;;;;15.70;5.90;;;9.90;99.90;;;;;;5008949;28;20033;-79
2024/02/03 06:17:31;;;;;;;19.00;5.47;;;9.90;99.90;;;;;;5011706;28;20121;-79
2024/02/03 06:19:57;;;;;;;19.33;6.35;;;9.80;99.90;;;;;;5007449;28;20121;-79
2024/02/03 06:22:23;;;;;;;19.65;6.00;;;9.80;99.90;;;;;;5008249;28;20035;-79
2024/02/03 06:24:48;;;;;;;17.90;5.55;;;9.80;99.90;;;;;;5004364;28;20031;-79
2024/02/03 06:27:14;;;;;;;21.00;6.13;;;9.70;99.90;;;;;;5013022;28;20037;-79
2024/02/03 06:29:40;;;;;;;16.30;6.80;;;9.70;99.90;;;;;;5012938;28;20037;-79
2024/02/03 06:32:05;;;;;;;22.13;6.32;;;9.70;99.90;;;;;;5013789;28;20034;-79
2024/02/03 06:34:31;;;;;;;20.95;6.80;;;9.70;99.90;;;;;;5013690;28;20120;-79
2024/02/03 06:36:57;;;;;;;20.00;6.47;;;9.70;99.90;;;;;;5014720;28;20034;-77
2024/02/03 06:39:22;;;;;;;24.90;7.63;;;9.70;99.90;;;;;;5013364;28;20123;-79
2024/02/03 06:41:48;;;;;;;22.17;7.45;;;9.70;99.90;;;;;;5009638;28;20471;-79
2024/02/03 06:44:13;;;;;;;16.92;7.07;;;9.70;99.90;;;;;;5013168;28;20399;-79
2024/02/03 06:46:39;;;;;;;23.27;7.75;;;9.60;99.90;;;;;;5005421;28;20041;-80
2024/02/03 06:49:04;;;;;;;23.33;7.43;;;10.50;99.90;;;;;;5008400;28;20045;-80
2024/02/03 06:51:30;;;;;;;25.38;7.57;;;9.60;99.90;;;;;;5020072;28;20040;-79
2024/02/03 06:53:55;;;;;;;23.98;7.60;;;9.60;99.90;;;;;;5011204;28;20041;-79
2024/02/03 06:56:21;;;;;;;17.42;7.30;;;9.60;99.90;;;;;;5011495;28;21634;-80
2024/02/03 06:58:50;;;;;;;16.63;7.53;;;9.60;99.90;;;;;;5012998;28;20034;-79
2024/02/03 07:01:15;;;;;;;16.05;6.93;;;9.60;99.90;;;;;;5012252;28;20050;-79
2024/02/03 07:03:41;;;;;;;19.27;6.90;;;9.60;99.90;;;;;;5013262;28;20038;-79
2024/02/03 07:06:07;;;;;;;20.17;6.75;;;9.60;99.90;;;;;;5009255;28;20377;-79
2024/02/03 07:08:32;;;;;;;21.98;7.55;;;9.70;99.90;;;;;;5012766;28;20041;-78
2024/02/03 07:10:58;;;;;;;18.02;6.45;;;9.60;99.90;;;;;;5012038;28;20038;-79
2024/02/03 07:13:25;;;;;;;20.20;6.32;;;9.70;99.90;;;;;;4998974;28;20113;-77
2024/02/03 07:15:51;;;;;;;20.92;6.13;;;9.70;99.90;;;;;;5013571;28;20038;-79
2024/02/03 07:18:17;;;;;;;15.95;6.13;;;9.70;99.90;;;;;;5011377;28;20040;-79
2024/02/03 07:20:43;;;;;;;21.45;6.35;;;9.60;99.90;;;;;;5011198;28;20046;-78
2024/02/03 07:23:09;;;;;;;19.30;5.55;;;9.70;99.90;;;;;;5009791;28;20403;-80
2024/02/03 07:25:35;;;;;;;15.40;5.40;;;9.70;99.90;;;;;;5013435;28;20061;-79
2024/02/03 07:28:00;;;;;;;17.15;6.00;;;9.70;99.90;;;;;;5010227;28;20041;-79
2024/02/03 07:30:26;;;;;;;17.42;5.65;;;9.70;99.90;;;;;;5009075;28;20034;-79
2024/02/03 07:32:51;;;;;;;14.70;5.50;;;9.70;99.90;;;;;;5011327;28;20100;-79
2024/02/03 07:35:17;;;;;;;17.45;6.00;;;9.70;99.90;;;;;;5011532;28;20046;-79
2024/02/03 07:37:43;;;;;;;20.55;5.93;;;9.70;99.90;;;;;;5009744;28;20041;-79
2024/02/03 07:40:09;;;;;;;18.10;5.18;;;9.70;99.90;;;;;;5002231;28;20108;-79
2024/02/03 07:42:35;;;;;;;17.45;5.20;;;9.70;99.90;;;;;;5010968;28;20076;-78
2024/02/03 07:45:02;;;;;;;20.42;5.43;;;9.70;99.90;;;;;;5006333;28;20030;-79
2024/02/03 07:47:27;;;;;;;16.83;5.32;;;9.70;99.90;;;;;;5009025;28;20038;-78
2024/02/03 07:49:53;;;;;;;14.98;4.97;;;9.70;99.90;;;;;;5005895;28;20037;-79
2024/02/03 07:52:20;;;;;;;14.68;5.15;;;9.80;99.90;;;;;;5008550;28;20065;-80
2024/02/03 07:54:46;;;;;;;15.80;5.60;;;9.70;99.90;;;;;;5000692;28;20096;-77
2024/02/03 07:57:12;;;;;;;17.25;5.80;;;9.70;99.90;;;;;;5005219;28;20038;-77
2024/02/03 07:59:37;;;;;;;15.88;5.50;;;9.70;99.90;;;;;;5010932;28;20422;-77
2024/02/03 08:02:03;;;;;;;16.27;5.43;;;9.80;99.90;;;;;;5009673;28;20041;-77
2024/02/03 08:04:29;;;;;;;14.25;5.13;;;9.80;99.90;;;;;;5012143;28;20037;-78
2024/02/03 08:06:54;;;;;;;14.07;4.72;;;9.80;99.90;;;;;;5012181;28;20522;-78
2024/02/03 08:09:20;;;;;;;14.10;4.63;;;9.80;99.90;;;;;;4994413;28;20031;-78
2024/02/03 08:11:46;;;;;;;18.77;5.60;;;9.80;99.90;;;;;;5010285;28;20034;-76
2024/02/03 08:14:11;;;;;;;15.32;4.97;;;9.80;99.90;;;;;;5008269;28;20116;-78
2024/02/03 08:16:37;;;;;;;21.67;4.97;;;9.90;99.90;;;;;;5008297;28;20101;-78
2024/02/03 08:19:03;;;;;;;15.77;4.97;;;9.90;99.90;;;;;;5003716;28;20496;-77
2024/02/03 08:21:28;;;;;;;19.17;5.35;;;9.80;99.90;;;;;;5009538;28;20038;-77
2024/02/03 08:23:54;;;;;;;19.92;5.28;;;9.90;99.90;;;;;;5010668;28;20038;-77
2024/02/03 08:26:20;;;;;;;16.77;4.82;;;9.90;99.90;;;;;;5010903;28;20487;-78
2024/02/03 08:28:45;;;;;;;18.08;5.22;;;9.90;99.90;;;;;;5009787;28;20695;-78
2024/02/03 08:31:11;;;;;;;16.45;5.45;;;9.90;99.90;;;;;;5010963;28;20044;-77
2024/02/03 08:33:37;;;;;;;18.13;5.10;;;9.90;99.90;;;;;;5006784;28;20042;-78
2024/02/03 08:36:03;;;;;;;10.38;4.45;;;9.90;99.90;;;;;;5006323;28;20089;-77
2024/02/03 08:38:29;;;;;;;17.65;5.18;;;9.90;99.90;;;;;;5001153;28;20038;-77
2024/02/03 08:40:54;;;;;;;11.82;4.70;;;9.90;99.90;;;;;;5015479;28;20057;-77
2024/02/03 08:43:20;;;;;;;15.57;4.93;;;9.90;99.90;;;;;;5012306;28;20030;-77
2024/02/03 08:45:45;;;;;;;15.65;5.20;;;9.90;99.90;;;;;;5013562;28;20049;-77
2024/02/03 08:48:11;;;;;;;18.55;5.00;;;9.90;99.90;;;;;;5004828;28;20038;-77
2024/02/03 08:50:36;;;;;;;17.48;4.25;;;10.00;99.90;;;;;;5001764;28;20049;-77
2024/02/03 08:53:02;;;;;;;11.88;4.28;;;10.00;99.90;;;;;;5009509;28;20041;-78
2024/02/03 08:55:28;;;;;;;14.70;4.50;;;10.00;99.90;;;;;;5010390;28;20037;-78
2024/02/03 08:57:55;;;;;;;17.55;4.47;;;10.00;99.90;;;;;;5007400;28;20514;-78
2024/02/03 09:00:21;;;;;;;18.25;4.53;;;10.00;99.90;;;;;;4999881;28;20046;-78
2024/02/03 09:02:46;;;;;;;13.60;4.82;;;10.00;99.90;;;;;;5010465;28;20038;-78
2024/02/03 09:05:12;;;;;;;20.73;4.72;;;10.00;99.90;;;;;;5003166;28;20398;-77
2024/02/03 09:07:38;;;;;;;16.38;5.22;;;10.00;99.90;;;;;;5000243;28;20050;-78
2024/02/03 09:10:03;;;;;;;18.27;4.97;;;10.00;99.90;;;;;;5010460;28;20038;-77
2024/02/03 09:12:29;;;;;;;14.25;4.60;;;10.10;99.90;;;;;;5005674;28;20040;-77
2024/02/03 09:14:55;;;;;;;18.00;4.90;;;10.10;99.90;;;;;;5014789;28;20049;-78
2024/02/03 09:17:20;;;;;;;14.32;4.70;;;10.10;99.90;;;;;;5017652;28;20077;-78
2024/02/03 09:19:47;;;;;;;23.30;5.53;;;10.20;99.90;;;;;;5016391;28;20483;-78
2024/02/03 09:22:13;;;;;;;14.45;4.90;;;10.20;99.90;;;;;;5012238;28;20042;-78
2024/02/03 09:24:46;;;;;;;17.02;4.95;;;10.20;99.90;;;;;;5014129;28;20373;-81
2024/02/03 09:27:11;;;;;;;16.83;4.55;;;10.20;99.90;;;;;;5015809;28;20458;-77
2024/02/03 09:29:41;;;;;;;17.38;4.82;;;10.20;99.90;;;;;;5013047;28;20117;-78
2024/02/03 09:32:07;;;;;;;16.27;5.07;;;10.20;99.90;;;;;;5017024;28;20045;-78
2024/02/03 09:34:33;;;;;;;13.70;4.80;;;10.20;99.90;;;;;;5015370;28;20064;-79
2024/02/03 09:36:59;;;;;;;12.70;4.20;;;10.30;99.90;;;;;;5016547;28;20483;-76
2024/02/03 09:39:24;;;;;;;9.23;3.75;;;10.30;99.90;;;;;;5013870;28;20121;-77
2024/02/03 09:41:50;;;;;;;16.85;4.63;;;10.30;99.90;;;;;;5017145;28;20121;-78
2024/02/03 09:44:16;;;;;;;13.73;3.78;;;10.30;99.90;;;;;;5013835;28;20479;-78
2024/02/03 09:46:41;;;;;;;12.77;4.28;;;10.30;99.90;;;;;;5017759;28;20121;-78
2024/02/03 09:49:07;;;;;;;11.27;3.72;;;10.30;99.90;;;;;;5014502;28;20034;-78
2024/02/03 09:51:33;;;;;;;12.85;4.50;;;10.40;99.90;;;;;;5009960;28;20077;-78
2024/02/03 09:53:59;;;;;;;15.98;3.88;;;10.40;99.90;;;;;;5015806;28;20034;-76
2024/02/03 09:56:25;;;;;;;12.68;3.78;;;10.40;99.90;;;;;;5013018;28;20049;-78
2024/02/03 09:58:51;;;;;;;11.35;4.35;;;10.40;99.90;;;;;;5014602;28;20068;-79
2024/02/03 10:01:17;;;;;;;14.93;4.70;;;10.40;99.90;;;;;;5014394;28;20033;-77
2024/02/03 10:03:46;;;;;;;15.27;4.85;;;10.40;99.90;;;;;;5024678;28;20519;-78
2024/02/03 10:06:13;;;;;;;12.85;4.60;;;10.40;99.90;;;;;;5016558;28;20507;-78
2024/02/03 10:08:39;;;;;;;15.57;6.07;;;10.40;99.90;;;;;;5011777;28;20042;-78
2024/02/03 10:11:05;;;;;;;16.88;5.95;;;10.50;99.90;;;;;;5017128;28;20583;-77
2024/02/03 10:13:33;;;;;;;19.98;7.00;;;10.50;99.90;;;;;;5011536;28;20038;-77
2024/02/03 10:16:01;;;;;;;23.15;7.32;;;10.50;99.90;;;;;;5017282;28;20474;-77
2024/02/03 10:18:27;;;;;;;17.73;6.93;;;10.50;99.90;;;;;;5011036;28;20089;-78
2024/02/03 10:20:53;;;;;;;21.58;7.40;;;10.50;99.90;;;;;;5016445;28;20048;-78
2024/02/03 10:23:19;;;;;;;17.92;7.53;;;10.50;99.90;;;;;;5015931;28;20518;-78
2024/02/03 10:25:45;;;;;;;17.67;6.35;;;10.60;99.90;;;;;;5011920;28;20042;-78
2024/02/03 10:28:11;;;;;;;21.10;6.28;;;10.60;99.90;;;;;;5012640;28;20091;-80
2024/02/03 10:30:37;;;;;;;15.02;5.70;;;10.60;99.90;;;;;;5013332;28;20026;-78
2024/02/03 10:33:05;;;;;;;13.10;5.00;;;10.60;99.90;;;;;;5012183;28;20045;-79
2024/02/03 10:35:32;;;;;;;17.73;6.43;;;10.60;99.90;;;;;;5014922;28;20093;-79
2024/02/03 10:37:58;;;;;;;21.42;5.50;;;10.60;99.90;;;;;;5006667;28;20381;-76
2024/02/03 10:40:28;;;;;;;16.88;5.78;;;10.60;99.90;;;;;;5012843;28;20136;-77
2024/02/03 10:42:54;;;;;;;17.15;5.68;;;10.60;99.90;;;;;;5007226;28;20044;-77
2024/02/03 10:45:35;;;;;;;16.33;5.15;;;10.70;99.90;;;;;;5005914;28;20080;-77
2024/02/03 10:48:01;;;;;;;18.23;4.80;;;10.70;99.90;;;;;;5000492;28;20046;-77
2024/02/03 10:50:42;;;;;;;16.02;4.95;;;10.70;99.90;;;;;;5002216;28;20038;-77
2024/02/03 10:53:12;;;;;;;13.50;4.63;;;10.70;99.90;;;;;;4999625;28;20238;-78
2024/02/03 10:55:43;;;;;;;15.23;4.85;;;10.70;99.90;;;;;;5008038;28;20511;-75
2024/02/03 10:58:10;;;;;;;10.43;4.10;;;10.80;99.90;;;;;;4986700;28;20042;-77
2024/02/03 11:00:36;;;;;;;13.15;4.03;;;10.80;99.90;;;;;;5008374;28;20069;-78
2024/02/03 11:03:02;;;;;;;14.40;4.20;;;10.80;99.90;;;;;;5005485;28;20127;-77
2024/02/03 11:05:29;;;;;;;17.08;4.28;;;10.80;99.90;;;;;;5003566;28;20034;-80
2024/02/03 11:08:03;;;;;;;13.50;4.80;;;10.80;99.90;;;;;;5006681;28;20049;-77
2024/02/03 11:10:28;;;;;;;14.25;4.78;;;10.90;99.90;;;;;;5007843;28;20201;-77
2024/02/03 11:13:11;;;;;;;14.73;4.57;;;10.90;99.90;;;;;;5007667;28;20121;-75
2024/02/03 11:15:41;;;;;;;12.68;3.92;;;10.90;99.90;;;;;;5003535;28;20052;-77
2024/02/03 11:18:07;;;;;;;14.70;4.35;;;10.90;99.90;;;;;;5008881;28;20054;-77
2024/02/03 11:20:32;;;;;;;12.93;3.85;;;11.00;99.90;;;;;;5007558;28;20042;-77
2024/02/03 11:22:58;;;;;;;13.43;4.60;;;11.00;99.90;;;;;;5001776;28;20125;-77
2024/02/03 11:25:24;;;;;;;15.70;4.15;;;11.00;99.90;;;;;;5007104;28;20053;-75
2024/02/03 11:27:50;;;;;;;13.40;4.47;;;11.00;99.90;;;;;;5009133;28;20041;-77
2024/02/03 11:30:19;;;;;;;19.05;5.20;;;11.00;99.90;;;;;;5006360;28;20535;-77
2024/02/03 11:32:45;;;;;;;18.25;4.85;;;11.00;99.90;;;;;;5009519;28;20084;-78
2024/02/03 11:35:13;;;;;;;15.73;5.05;;;11.00;99.90;;;;;;5006437;28;20074;-78
2024/02/03 11:37:39;;;;;;;17.52;4.65;;;11.00;99.90;;;;;;4998217;28;20643;-76
2024/02/03 11:40:11;;;;;;;14.65;4.70;;;10.90;99.90;;;;;;4999479;28;20100;-77
2024/02/03 11:42:37;;;;;;;20.83;5.27;;;11.00;99.90;;;;;;5000362;28;20468;-78
2024/02/03 11:45:03;;;;;;;15.85;3.67;;;11.10;99.90;;;;;;5005563;28;20299;-77
2024/02/03 11:47:30;;;;;;;10.38;3.30;;;11.00;99.90;;;;;;5007274;28;20076;-76
2024/02/03 11:49:56;;;;;;;10.75;3.20;;;11.00;99.90;;;;;;5010159;28;20084;-79
2024/02/03 11:52:24;;;;;;;10.57;3.38;;;11.00;99.90;;;;;;5007824;28;20046;-78
2024/02/03 11:54:51;;;;;;;14.20;3.67;;;11.00;99.90;;;;;;5005554;28;20515;-77
2024/02/03 11:57:17;;;;;;;13.05;3.95;;;11.00;99.90;;;;;;5009098;28;20073;-77
2024/02/03 11:59:42;;;;;;;12.10;3.33;;;11.00;99.90;;;;;;5005892;28;20069;-77
2024/02/03 12:02:10;;;;;;;14.07;4.05;;;11.10;99.90;;;;;;5005671;28;20046;-75
2024/02/03 12:04:35;;;;;;;17.48;4.75;;;11.10;99.90;;;;;;5003402;28;20100;-77
2024/02/03 12:07:01;;;;;;;11.48;3.72;;;11.10;99.90;;;;;;5007048;28;20050;-78
2024/02/03 12:09:27;;;;;;;14.65;3.88;;;11.10;99.90;;;;;;5005951;28;20040;-76
2024/02/03 12:11:54;;;;;;;16.80;4.13;;;11.10;99.90;;;;;;5003825;28;20054;-78
2024/02/03 12:14:21;;;;;;;17.92;4.65;;;11.10;99.90;;;;;;4999239;28;20053;-78
2024/02/03 12:16:48;;;;;;;19.30;5.18;;;11.10;99.90;;;;;;5006895;28;20057;-78
2024/02/03 12:19:14;;;;;;;18.98;5.25;;;11.10;99.90;;;;;;5004196;28;20058;-80
2024/02/03 12:21:41;;;;;;;15.73;5.25;;;11.10;99.90;;;;;;5007533;28;20038;-80
2024/02/03 12:24:07;;;;;;;16.30;5.78;;;11.20;99.90;;;;;;5007966;28;20459;-78
2024/02/03 12:26:34;;;;;;;14.05;4.80;;;11.20;99.90;;;;;;5001992;28;20126;-78
2024/02/03 12:29:01;;;;;;;17.25;4.68;;;11.20;99.90;;;;;;5005080;28;20050;-78
2024/02/03 12:31:27;;;;;;;16.35;4.18;;;11.20;99.90;;;;;;5002052;28;20116;-77
2024/02/03 12:33:52;;;;;;;16.27;4.13;;;11.10;99.90;;;;;;5001148;28;20121;-78